sensor_id;sensor_type;location;lat;lon;timestamp;temperature;humidity
59855;DHT22;45732;52.850;6.896;2023-11-21T00:02:13;9.10;99.90
59855;DHT22;45732;52.850;6.896;2023-11-21T00:04:39;9.10;99.90
59855;DHT22;45732;52.850;6.896;2023-11-21T00:07:05;9.20;99.90
59855;DHT22;45732;52.850;6.896;2023-11-21T00:09:32;9.20;99.90
59855;DHT22;45732;52.850;6.896;2023-11-21T00:11:58;9.20;99.90
59855;DHT22;45732;52.850;6.896;2023-11-21T00:14:27;9.20;99.90
59855;DHT22;45732;52.850;6.896;2023-11-21T00:16:52;9.10;99.90
59855;DHT22;45732;52.850;6.896;2023-11-21T00:19:18;9.10;99.90
59855;DHT22;45732;52.850;6.896;2023-11-21T00:21:43;9.10;99.90
59855;DHT22;45732;52.850;6.896;2023-11-21T00:24:11;9.10;99.90
59855;DHT22;45732;52.850;6.896;2023-11-21T00:26:42;9.10;99.90
59855;DHT22;45732;52.850;6.896;2023-11-21T00:29:07;9.10;99.90
59855;DHT22;45732;52.850;6.896;2023-11-21T00:31:34;9.10;99.90
59855;DHT22;45732;52.850;6.896;2023-11-21T00:34:02;9.10;99.90
59855;DHT22;45732;52.850;6.896;2023-11-21T00:36:29;9.10;99.90
59855;DHT22;45732;52.850;6.896;2023-11-21T00:38:54;9.10;99.90
59855;DHT22;45732;52.850;6.896;2023-11-21T00:41:21;9.00;99.90
59855;DHT22;45732;52.850;6.896;2023-11-21T00:43:47;9.00;99.90
59855;DHT22;45732;52.850;6.896;2023-11-21T00:46:12;9.00;99.90
59855;DHT22;45732;52.850;6.896;2023-11-21T00:48:39;9.00;99.90
59855;DHT22;45732;52.850;6.896;2023-11-21T00:51:05;9.00;99.90
59855;DHT22;45732;52.850;6.896;2023-11-21T00:53:31;9.00;99.90
59855;DHT22;45732;52.850;6.896;2023-11-21T00:55:57;9.00;99.90
59855;DHT22;45732;52.850;6.896;2023-11-21T00:58:26;9.00;99.90
59855;DHT22;45732;52.850;6.896;2023-11-21T01:00:52;9.00;99.90
59855;DHT22;45732;52.850;6.896;2023-11-21T01:03:18;9.10;99.90
59855;DHT22;45732;52.850;6.896;2023-11-21T01:05:44;9.10;99.90
59855;DHT22;45732;52.850;6.896;2023-11-21T01:08:11;9.00;99.90
59855;DHT22;45732;52.850;6.896;2023-11-21T01:10:36;9.10;99.90
59855;DHT22;45732;52.850;6.896;2023-11-21T01:13:02;9.10;99.90
59855;DHT22;45732;52.850;6.896;2023-11-21T01:15:31;9.10;99.90
59855;DHT22;45732;52.850;6.896;2023-11-21T01:17:56;9.10;99.90
59855;DHT22;45732;52.850;6.896;2023-11-21T01:20:22;9.10;99.90
59855;DHT22;45732;52.850;6.896;2023-11-21T01:22:48;9.10;99.90
59855;DHT22;45732;52.850;6.896;2023-11-21T01:25:14;9.10;99.90
59855;DHT22;45732;52.850;6.896;2023-11-21T01:27:41;9.10;99.90
59855;DHT22;45732;52.850;6.896;2023-11-21T01:30:07;9.10;99.90
59855;DHT22;45732;52.850;6.896;2023-11-21T01:32:36;9.10;99.90
59855;DHT22;45732;52.850;6.896;2023-11-21T01:35:02;9.10;99.90
59855;DHT22;45732;52.850;6.896;2023-11-21T01:37:28;9.10;99.90
59855;DHT22;45732;52.850;6.896;2023-11-21T01:39:56;9.10;99.90
59855;DHT22;45732;52.850;6.896;2023-11-21T01:42:22;9.10;99.90
59855;DHT22;45732;52.850;6.896;2023-11-21T01:44:48;9.10;99.90
59855;DHT22;45732;52.850;6.896;2023-11-21T01:47:14;9.10;99.90
59855;DHT22;45732;52.850;6.896;2023-11-21T01:49:43;9.10;99.90
59855;DHT22;45732;52.850;6.896;2023-11-21T01:52:10;9.10;99.90
59855;DHT22;45732;52.850;6.896;2023-11-21T01:54:37;9.10;99.90
59855;DHT22;45732;52.850;6.896;2023-11-21T01:57:04;9.20;99.90
59855;DHT22;45732;52.850;6.896;2023-11-21T01:59:36;9.10;99.90
59855;DHT22;45732;52.850;6.896;2023-11-21T02:02:06;9.10;99.90
59855;DHT22;45732;52.850;6.896;2023-11-21T02:04:33;9.10;99.90
59855;DHT22;45732;52.850;6.896;2023-11-21T02:06:59;9.10;99.90
59855;DHT22;45732;52.850;6.896;2023-11-21T02:09:26;9.10;99.90
59855;DHT22;45732;52.850;6.896;2023-11-21T02:11:53;9.10;99.90
59855;DHT22;45732;52.850;6.896;2023-11-21T02:14:20;9.10;99.90
59855;DHT22;45732;52.850;6.896;2023-11-21T02:16:49;9.10;99.90
59855;DHT22;45732;52.850;6.896;2023-11-21T02:19:18;9.10;99.90
59855;DHT22;45732;52.850;6.896;2023-11-21T02:21:46;9.10;99.90
59855;DHT22;45732;52.850;6.896;2023-11-21T02:24:13;9.10;99.90
59855;DHT22;45732;52.850;6.896;2023-11-21T02:26:39;9.10;99.90
59855;DHT22;45732;52.850;6.896;2023-11-21T02:29:04;9.20;99.90
59855;DHT22;45732;52.850;6.896;2023-11-21T02:31:30;9.20;99.90
59855;DHT22;45732;52.850;6.896;2023-11-21T02:33:58;9.20;99.90
59855;DHT22;45732;52.850;6.896;2023-11-21T02:36:24;9.20;99.90
59855;DHT22;45732;52.850;6.896;2023-11-21T02:38:49;9.20;99.90
59855;DHT22;45732;52.850;6.896;2023-11-21T02:41:15;9.20;99.90
59855;DHT22;45732;52.850;6.896;2023-11-21T02:43:41;9.20;99.90
59855;DHT22;45732;52.850;6.896;2023-11-21T02:46:08;9.20;99.90
59855;DHT22;45732;52.850;6.896;2023-11-21T02:48:34;9.20;99.90
59855;DHT22;45732;52.850;6.896;2023-11-21T02:50:59;9.20;99.90
59855;DHT22;45732;52.850;6.896;2023-11-21T02:53:25;9.20;99.90
59855;DHT22;45732;52.850;6.896;2023-11-21T02:55:51;9.30;99.90
59855;DHT22;45732;52.850;6.896;2023-11-21T02:58:17;9.30;99.90
59855;DHT22;45732;52.850;6.896;2023-11-21T03:00:43;9.30;99.90
59855;DHT22;45732;52.850;6.896;2023-11-21T03:03:08;9.30;99.90
59855;DHT22;45732;52.850;6.896;2023-11-21T03:05:34;9.30;99.90
59855;DHT22;45732;52.850;6.896;2023-11-21T03:08:01;9.30;99.90
59855;DHT22;45732;52.850;6.896;2023-11-21T03:10:26;9.30;99.90
59855;DHT22;45732;52.850;6.896;2023-11-21T03:12:52;9.30;99.90
59855;DHT22;45732;52.850;6.896;2023-11-21T03:15:18;9.30;99.90
59855;DHT22;45732;52.850;6.896;2023-11-21T03:17:44;9.30;99.90
59855;DHT22;45732;52.850;6.896;2023-11-21T03:20:10;9.30;99.90
59855;DHT22;45732;52.850;6.896;2023-11-21T03:22:37;9.30;99.90
59855;DHT22;45732;52.850;6.896;2023-11-21T03:25:04;9.30;99.90
59855;DHT22;45732;52.850;6.896;2023-11-21T03:27:30;9.40;99.90
59855;DHT22;45732;52.850;6.896;2023-11-21T03:29:56;9.40;99.90
59855;DHT22;45732;52.850;6.896;2023-11-21T03:32:21;9.40;99.90
59855;DHT22;45732;52.850;6.896;2023-11-21T03:34:57;9.40;99.90
59855;DHT22;45732;52.850;6.896;2023-11-21T03:37:24;9.40;99.90
59855;DHT22;45732;52.850;6.896;2023-11-21T03:39:53;9.40;99.90
59855;DHT22;45732;52.850;6.896;2023-11-21T03:42:20;9.40;99.90
59855;DHT22;45732;52.850;6.896;2023-11-21T03:44:46;9.40;99.90
59855;DHT22;45732;52.850;6.896;2023-11-21T03:47:11;9.40;99.90
59855;DHT22;45732;52.850;6.896;2023-11-21T03:49:37;9.40;99.90
59855;DHT22;45732;52.850;6.896;2023-11-21T03:52:03;9.40;99.90
59855;DHT22;45732;52.850;6.896;2023-11-21T03:54:29;9.40;99.90
59855;DHT22;45732;52.850;6.896;2023-11-21T03:56:55;9.40;99.90
59855;DHT22;45732;52.850;6.896;2023-11-21T03:59:21;9.40;99.90
59855;DHT22;45732;52.850;6.896;2023-11-21T04:01:50;9.40;99.90
59855;DHT22;45732;52.850;6.896;2023-11-21T04:04:15;9.40;99.90
59855;DHT22;45732;52.850;6.896;2023-11-21T04:06:41;9.50;99.90
59855;DHT22;45732;52.850;6.896;2023-11-21T04:09:07;9.40;99.90
59855;DHT22;45732;52.850;6.896;2023-11-21T04:11:33;9.40;99.90
59855;DHT22;45732;52.850;6.896;2023-11-21T04:13:59;9.40;99.90
59855;DHT22;45732;52.850;6.896;2023-11-21T04:16:25;9.40;99.90
59855;DHT22;45732;52.850;6.896;2023-11-21T04:18:50;9.40;99.90
59855;DHT22;45732;52.850;6.896;2023-11-21T04:21:16;9.40;99.90
59855;DHT22;45732;52.850;6.896;2023-11-21T04:23:42;9.40;99.90
59855;DHT22;45732;52.850;6.896;2023-11-21T04:26:08;9.40;99.90
59855;DHT22;45732;52.850;6.896;2023-11-21T04:28:33;9.40;99.90
59855;DHT22;45732;52.850;6.896;2023-11-21T04:31:00;9.40;99.90
59855;DHT22;45732;52.850;6.896;2023-11-21T04:33:25;9.40;99.90
59855;DHT22;45732;52.850;6.896;2023-11-21T04:35:51;9.40;99.90
59855;DHT22;45732;52.850;6.896;2023-11-21T04:38:17;9.30;99.90
59855;DHT22;45732;52.850;6.896;2023-11-21T04:40:42;9.40;99.90
59855;DHT22;45732;52.850;6.896;2023-11-21T04:43:08;9.40;99.90
59855;DHT22;45732;52.850;6.896;2023-11-21T04:45:34;9.30;99.90
59855;DHT22;45732;52.850;6.896;2023-11-21T04:48:00;9.30;99.90
59855;DHT22;45732;52.850;6.896;2023-11-21T04:50:25;9.30;99.90
59855;DHT22;45732;52.850;6.896;2023-11-21T04:52:52;9.30;99.90
59855;DHT22;45732;52.850;6.896;2023-11-21T04:55:18;9.30;99.90
59855;DHT22;45732;52.850;6.896;2023-11-21T04:57:45;9.30;99.90
59855;DHT22;45732;52.850;6.896;2023-11-21T05:00:12;9.40;99.90
59855;DHT22;45732;52.850;6.896;2023-11-21T05:02:40;9.30;99.90
59855;DHT22;45732;52.850;6.896;2023-11-21T05:05:06;9.40;99.90
59855;DHT22;45732;52.850;6.896;2023-11-21T05:07:33;9.40;99.90
59855;DHT22;45732;52.850;6.896;2023-11-21T05:10:00;9.40;99.90
59855;DHT22;45732;52.850;6.896;2023-11-21T05:12:31;9.40;99.90
59855;DHT22;45732;52.850;6.896;2023-11-21T05:15:06;9.40;99.90
59855;DHT22;45732;52.850;6.896;2023-11-21T05:17:36;9.40;99.90
59855;DHT22;45732;52.850;6.896;2023-11-21T05:20:03;9.40;99.90
59855;DHT22;45732;52.850;6.896;2023-11-21T05:22:34;9.40;99.90
59855;DHT22;45732;52.850;6.896;2023-11-21T05:25:00;9.30;99.90
59855;DHT22;45732;52.850;6.896;2023-11-21T05:27:25;9.40;99.90
59855;DHT22;45732;52.850;6.896;2023-11-21T05:29:51;9.30;99.90
59855;DHT22;45732;52.850;6.896;2023-11-21T05:32:17;9.40;99.90
59855;DHT22;45732;52.850;6.896;2023-11-21T05:34:43;9.30;99.90
59855;DHT22;45732;52.850;6.896;2023-11-21T05:37:08;9.30;99.90
59855;DHT22;45732;52.850;6.896;2023-11-21T05:39:34;9.40;99.90
59855;DHT22;45732;52.850;6.896;2023-11-21T05:42:01;9.40;99.90
59855;DHT22;45732;52.850;6.896;2023-11-21T05:44:27;9.40;99.90
59855;DHT22;45732;52.850;6.896;2023-11-21T05:46:52;9.40;99.90
59855;DHT22;45732;52.850;6.896;2023-11-21T05:49:18;9.40;99.90
59855;DHT22;45732;52.850;6.896;2023-11-21T05:51:47;9.40;99.90
59855;DHT22;45732;52.850;6.896;2023-11-21T05:54:13;9.40;99.90
59855;DHT22;45732;52.850;6.896;2023-11-21T05:56:39;9.50;99.90
59855;DHT22;45732;52.850;6.896;2023-11-21T05:59:04;9.40;99.90
59855;DHT22;45732;52.850;6.896;2023-11-21T06:01:32;9.50;99.90
59855;DHT22;45732;52.850;6.896;2023-11-21T06:03:57;9.50;99.90
59855;DHT22;45732;52.850;6.896;2023-11-21T06:06:24;9.50;99.90
59855;DHT22;45732;52.850;6.896;2023-11-21T06:08:51;9.50;99.90
59855;DHT22;45732;52.850;6.896;2023-11-21T06:11:17;9.40;99.90
59855;DHT22;45732;52.850;6.896;2023-11-21T06:13:43;9.40;99.90
59855;DHT22;45732;52.850;6.896;2023-11-21T06:16:09;9.40;99.90
59855;DHT22;45732;52.850;6.896;2023-11-21T06:18:35;9.40;99.90
59855;DHT22;45732;52.850;6.896;2023-11-21T06:21:01;9.40;99.90
59855;DHT22;45732;52.850;6.896;2023-11-21T06:23:27;9.40;99.90
59855;DHT22;45732;52.850;6.896;2023-11-21T06:25:52;9.40;99.90
59855;DHT22;45732;52.850;6.896;2023-11-21T06:28:18;9.40;99.90
59855;DHT22;45732;52.850;6.896;2023-11-21T06:30:44;9.40;99.90
59855;DHT22;45732;52.850;6.896;2023-11-21T06:33:12;9.40;99.90
59855;DHT22;45732;52.850;6.896;2023-11-21T06:35:38;9.40;99.90
59855;DHT22;45732;52.850;6.896;2023-11-21T06:38:03;9.40;99.90
59855;DHT22;45732;52.850;6.896;2023-11-21T06:40:29;9.50;99.90
59855;DHT22;45732;52.850;6.896;2023-11-21T06:42:55;9.50;99.90
59855;DHT22;45732;52.850;6.896;2023-11-21T06:45:20;9.50;99.90
59855;DHT22;45732;52.850;6.896;2023-11-21T06:47:47;9.50;99.90
59855;DHT22;45732;52.850;6.896;2023-11-21T06:50:14;9.50;99.90
59855;DHT22;45732;52.850;6.896;2023-11-21T06:52:39;9.50;99.90
59855;DHT22;45732;52.850;6.896;2023-11-21T06:55:05;9.50;99.90
59855;DHT22;45732;52.850;6.896;2023-11-21T06:57:33;9.50;99.90
59855;DHT22;45732;52.850;6.896;2023-11-21T06:59:59;9.50;99.90
59855;DHT22;45732;52.850;6.896;2023-11-21T07:02:25;9.50;99.90
59855;DHT22;45732;52.850;6.896;2023-11-21T07:04:51;9.60;99.90
59855;DHT22;45732;52.850;6.896;2023-11-21T07:07:17;9.50;99.90
59855;DHT22;45732;52.850;6.896;2023-11-21T07:09:43;9.60;99.90
59855;DHT22;45732;52.850;6.896;2023-11-21T07:12:09;9.50;99.90
59855;DHT22;45732;52.850;6.896;2023-11-21T07:14:35;9.60;99.90
59855;DHT22;45732;52.850;6.896;2023-11-21T07:17:01;9.60;99.90
59855;DHT22;45732;52.850;6.896;2023-11-21T07:19:26;9.60;99.90
59855;DHT22;45732;52.850;6.896;2023-11-21T07:21:52;9.50;99.90
59855;DHT22;45732;52.850;6.896;2023-11-21T07:24:18;9.50;99.90
59855;DHT22;45732;52.850;6.896;2023-11-21T07:26:44;9.60;99.90
59855;DHT22;45732;52.850;6.896;2023-11-21T07:29:09;9.50;99.90
59855;DHT22;45732;52.850;6.896;2023-11-21T07:31:37;9.50;99.90
59855;DHT22;45732;52.850;6.896;2023-11-21T07:34:03;9.60;99.90
59855;DHT22;45732;52.850;6.896;2023-11-21T07:36:29;9.60;99.90
59855;DHT22;45732;52.850;6.896;2023-11-21T07:38:55;9.60;99.90
59855;DHT22;45732;52.850;6.896;2023-11-21T07:41:20;9.60;99.90
59855;DHT22;45732;52.850;6.896;2023-11-21T07:43:46;9.60;99.90
59855;DHT22;45732;52.850;6.896;2023-11-21T07:46:13;9.60;99.90
59855;DHT22;45732;52.850;6.896;2023-11-21T07:48:39;9.60;99.90
59855;DHT22;45732;52.850;6.896;2023-11-21T07:51:06;9.60;99.90
59855;DHT22;45732;52.850;6.896;2023-11-21T07:53:35;9.60;99.90
59855;DHT22;45732;52.850;6.896;2023-11-21T07:56:05;9.60;99.90
59855;DHT22;45732;52.850;6.896;2023-11-21T07:58:31;9.70;99.90
59855;DHT22;45732;52.850;6.896;2023-11-21T08:01:02;9.70;99.90
59855;DHT22;45732;52.850;6.896;2023-11-21T08:03:27;9.60;99.90
59855;DHT22;45732;52.850;6.896;2023-11-21T08:05:55;9.60;99.90
59855;DHT22;45732;52.850;6.896;2023-11-21T08:08:22;9.70;99.90
59855;DHT22;45732;52.850;6.896;2023-11-21T08:10:47;9.70;99.90
59855;DHT22;45732;52.850;6.896;2023-11-21T08:13:33;9.70;99.90
59855;DHT22;45732;52.850;6.896;2023-11-21T08:15:59;9.70;99.90
59855;DHT22;45732;52.850;6.896;2023-11-21T08:18:28;9.80;99.90
59855;DHT22;45732;52.850;6.896;2023-11-21T08:20:55;9.80;99.90
59855;DHT22;45732;52.850;6.896;2023-11-21T08:23:21;9.80;99.90
59855;DHT22;45732;52.850;6.896;2023-11-21T08:25:51;9.70;99.90
59855;DHT22;45732;52.850;6.896;2023-11-21T08:28:16;9.80;99.90
59855;DHT22;45732;52.850;6.896;2023-11-21T08:30:42;9.80;99.90
59855;DHT22;45732;52.850;6.896;2023-11-21T08:33:08;9.80;99.90
59855;DHT22;45732;52.850;6.896;2023-11-21T08:35:35;9.80;99.90
59855;DHT22;45732;52.850;6.896;2023-11-21T08:38:02;9.70;99.90
59855;DHT22;45732;52.850;6.896;2023-11-21T08:40:27;9.70;99.90
59855;DHT22;45732;52.850;6.896;2023-11-21T08:42:53;9.70;99.90
59855;DHT22;45732;52.850;6.896;2023-11-21T08:45:21;9.70;99.90
59855;DHT22;45732;52.850;6.896;2023-11-21T08:47:47;9.60;99.90
59855;DHT22;45732;52.850;6.896;2023-11-21T08:50:13;9.60;99.90
59855;DHT22;45732;52.850;6.896;2023-11-21T08:52:40;9.60;99.90
59855;DHT22;45732;52.850;6.896;2023-11-21T08:55:07;9.60;99.90
59855;DHT22;45732;52.850;6.896;2023-11-21T08:57:36;9.60;99.90
59855;DHT22;45732;52.850;6.896;2023-11-21T09:00:06;9.60;99.90
59855;DHT22;45732;52.850;6.896;2023-11-21T09:02:37;9.60;99.90
59855;DHT22;45732;52.850;6.896;2023-11-21T09:05:05;9.60;99.90
59855;DHT22;45732;52.850;6.896;2023-11-21T09:07:30;9.50;99.90
59855;DHT22;45732;52.850;6.896;2023-11-21T09:09:56;9.60;99.90
59855;DHT22;45732;52.850;6.896;2023-11-21T09:12:22;9.50;99.90
59855;DHT22;45732;52.850;6.896;2023-11-21T09:14:48;9.50;99.90
59855;DHT22;45732;52.850;6.896;2023-11-21T09:17:16;9.60;99.90
59855;DHT22;45732;52.850;6.896;2023-11-21T09:19:42;9.50;99.90
59855;DHT22;45732;52.850;6.896;2023-11-21T09:22:10;9.50;99.90
59855;DHT22;45732;52.850;6.896;2023-11-21T09:24:36;9.50;99.90
59855;DHT22;45732;52.850;6.896;2023-11-21T09:27:03;9.50;99.90
59855;DHT22;45732;52.850;6.896;2023-11-21T09:29:30;9.40;99.90
59855;DHT22;45732;52.850;6.896;2023-11-21T09:31:57;9.40;99.90
59855;DHT22;45732;52.850;6.896;2023-11-21T09:34:25;9.50;99.90
59855;DHT22;45732;52.850;6.896;2023-11-21T09:36:51;9.40;99.90
59855;DHT22;45732;52.850;6.896;2023-11-21T09:39:17;9.50;99.90
59855;DHT22;45732;52.850;6.896;2023-11-21T09:41:49;9.50;99.90
59855;DHT22;45732;52.850;6.896;2023-11-21T09:47:16;9.50;99.90
59855;DHT22;45732;52.850;6.896;2023-11-21T09:49:49;9.40;99.90
59855;DHT22;45732;52.850;6.896;2023-11-21T09:52:38;9.50;99.90
59855;DHT22;45732;52.850;6.896;2023-11-21T09:55:06;9.40;99.90
59855;DHT22;45732;52.850;6.896;2023-11-21T09:57:32;9.30;99.90
59855;DHT22;45732;52.850;6.896;2023-11-21T10:00:01;9.40;99.90
59855;DHT22;45732;52.850;6.896;2023-11-21T10:02:30;9.40;99.90
59855;DHT22;45732;52.850;6.896;2023-11-21T10:05:00;9.30;99.90
59855;DHT22;45732;52.850;6.896;2023-11-21T10:07:26;9.30;99.90
59855;DHT22;45732;52.850;6.896;2023-11-21T10:09:54;9.20;99.90
59855;DHT22;45732;52.850;6.896;2023-11-21T10:12:22;9.20;99.90
59855;DHT22;45732;52.850;6.896;2023-11-21T10:14:51;9.20;99.90
59855;DHT22;45732;52.850;6.896;2023-11-21T10:17:18;9.20;99.90
59855;DHT22;45732;52.850;6.896;2023-11-21T10:19:47;9.20;99.90
59855;DHT22;45732;52.850;6.896;2023-11-21T10:22:15;9.20;99.90
59855;DHT22;45732;52.850;6.896;2023-11-21T10:24:41;9.30;99.90
59855;DHT22;45732;52.850;6.896;2023-11-21T10:27:09;9.30;99.90
59855;DHT22;45732;52.850;6.896;2023-11-21T10:29:35;9.30;99.90
59855;DHT22;45732;52.850;6.896;2023-11-21T10:32:04;9.30;99.90
59855;DHT22;45732;52.850;6.896;2023-11-21T10:34:31;9.20;99.90
59855;DHT22;45732;52.850;6.896;2023-11-21T10:36:57;9.20;99.90
59855;DHT22;45732;52.850;6.896;2023-11-21T10:39:24;9.30;99.90
59855;DHT22;45732;52.850;6.896;2023-11-21T10:41:54;9.30;99.90
59855;DHT22;45732;52.850;6.896;2023-11-21T10:44:20;9.30;99.90
59855;DHT22;45732;52.850;6.896;2023-11-21T10:46:50;9.30;99.90
59855;DHT22;45732;52.850;6.896;2023-11-21T10:49:18;9.30;99.90
59855;DHT22;45732;52.850;6.896;2023-11-21T10:51:44;9.30;99.90
59855;DHT22;45732;52.850;6.896;2023-11-21T10:54:10;9.30;99.90
59855;DHT22;45732;52.850;6.896;2023-11-21T10:56:39;9.30;99.90
59855;DHT22;45732;52.850;6.896;2023-11-21T10:59:10;9.30;99.90
59855;DHT22;45732;52.850;6.896;2023-11-21T11:01:42;9.30;99.90
59855;DHT22;45732;52.850;6.896;2023-11-21T11:04:11;9.40;99.90
59855;DHT22;45732;52.850;6.896;2023-11-21T11:06:43;9.40;99.90
59855;DHT22;45732;52.850;6.896;2023-11-21T11:09:11;9.50;99.90
59855;DHT22;45732;52.850;6.896;2023-11-21T11:11:40;9.40;99.90
59855;DHT22;45732;52.850;6.896;2023-11-21T11:14:10;9.40;99.90
59855;DHT22;45732;52.850;6.896;2023-11-21T11:16:39;9.40;99.90
59855;DHT22;45732;52.850;6.896;2023-11-21T11:19:09;9.40;99.90
59855;DHT22;45732;52.850;6.896;2023-11-21T11:22:08;9.40;99.90
59855;DHT22;45732;52.850;6.896;2023-11-21T11:33:08;9.50;99.90
59855;DHT22;45732;52.850;6.896;2023-11-21T11:36:02;9.40;99.90
59855;DHT22;45732;52.850;6.896;2023-11-21T11:38:32;9.40;99.90
59855;DHT22;45732;52.850;6.896;2023-11-21T11:41:02;9.50;99.90
59855;DHT22;45732;52.850;6.896;2023-11-21T11:43:32;9.50;99.90
59855;DHT22;45732;52.850;6.896;2023-11-21T11:46:12;9.50;99.90
59855;DHT22;45732;52.850;6.896;2023-11-21T11:48:39;9.40;99.90
59855;DHT22;45732;52.850;6.896;2023-11-21T11:51:11;9.40;99.90
59855;DHT22;45732;52.850;6.896;2023-11-21T11:53:40;9.30;99.90
59855;DHT22;45732;52.850;6.896;2023-11-21T11:56:19;9.40;99.90
59855;DHT22;45732;52.850;6.896;2023-11-21T11:58:48;9.40;99.90
59855;DHT22;45732;52.850;6.896;2023-11-21T12:01:18;9.50;99.90
59855;DHT22;45732;52.850;6.896;2023-11-21T12:03:44;9.50;99.90
59855;DHT22;45732;52.850;6.896;2023-11-21T12:06:10;9.60;99.90
59855;DHT22;45732;52.850;6.896;2023-11-21T12:08:37;9.60;99.90
59855;DHT22;45732;52.850;6.896;2023-11-21T12:11:04;9.60;99.90
59855;DHT22;45732;52.850;6.896;2023-11-21T12:13:30;9.60;99.90
59855;DHT22;45732;52.850;6.896;2023-11-21T12:15:56;9.60;99.90
59855;DHT22;45732;52.850;6.896;2023-11-21T12:18:22;9.60;99.90
59855;DHT22;45732;52.850;6.896;2023-11-21T12:20:47;9.60;99.90
59855;DHT22;45732;52.850;6.896;2023-11-21T12:23:15;9.50;99.90
59855;DHT22;45732;52.850;6.896;2023-11-21T12:25:42;9.60;99.90
59855;DHT22;45732;52.850;6.896;2023-11-21T12:28:08;9.60;99.90
59855;DHT22;45732;52.850;6.896;2023-11-21T12:30:35;9.60;99.90
59855;DHT22;45732;52.850;6.896;2023-11-21T12:33:04;9.50;99.90
59855;DHT22;45732;52.850;6.896;2023-11-21T12:35:34;9.50;99.90
59855;DHT22;45732;52.850;6.896;2023-11-21T12:38:01;9.50;99.90
59855;DHT22;45732;52.850;6.896;2023-11-21T12:40:31;9.50;99.90
59855;DHT22;45732;52.850;6.896;2023-11-21T12:42:58;9.60;99.90
59855;DHT22;45732;52.850;6.896;2023-11-21T12:45:28;9.60;99.90
59855;DHT22;45732;52.850;6.896;2023-11-21T12:47:55;9.60;99.90
59855;DHT22;45732;52.850;6.896;2023-11-21T12:50:23;9.50;99.90
59855;DHT22;45732;52.850;6.896;2023-11-21T12:52:51;9.50;99.90
59855;DHT22;45732;52.850;6.896;2023-11-21T12:55:21;9.50;99.90
59855;DHT22;45732;52.850;6.896;2023-11-21T12:57:52;9.50;99.90
59855;DHT22;45732;52.850;6.896;2023-11-21T13:00:20;9.50;99.90
59855;DHT22;45732;52.850;6.896;2023-11-21T13:02:56;9.50;99.90
59855;DHT22;45732;52.850;6.896;2023-11-21T13:05:29;9.50;99.90
59855;DHT22;45732;52.850;6.896;2023-11-21T13:07:56;9.40;99.90
59855;DHT22;45732;52.850;6.896;2023-11-21T13:10:27;9.40;99.90
59855;DHT22;45732;52.850;6.896;2023-11-21T13:13:00;9.50;99.90
59855;DHT22;45732;52.850;6.896;2023-11-21T13:15:29;9.50;99.90
59855;DHT22;45732;52.850;6.896;2023-11-21T13:17:57;9.50;99.90
59855;DHT22;45732;52.850;6.896;2023-11-21T13:20:26;9.40;99.90
59855;DHT22;45732;52.850;6.896;2023-11-21T13:22:56;9.40;99.90
59855;DHT22;45732;52.850;6.896;2023-11-21T13:25:24;9.40;99.90
59855;DHT22;45732;52.850;6.896;2023-11-21T13:27:56;9.30;99.90
59855;DHT22;45732;52.850;6.896;2023-11-21T13:30:23;9.30;99.90
59855;DHT22;45732;52.850;6.896;2023-11-21T13:32:52;9.30;99.90
59855;DHT22;45732;52.850;6.896;2023-11-21T13:35:18;9.30;99.90
59855;DHT22;45732;52.850;6.896;2023-11-21T13:37:52;9.30;99.90
59855;DHT22;45732;52.850;6.896;2023-11-21T13:40:21;9.20;99.90
59855;DHT22;45732;52.850;6.896;2023-11-21T13:42:54;9.30;99.90
59855;DHT22;45732;52.850;6.896;2023-11-21T13:45:23;9.30;99.90
59855;DHT22;45732;52.850;6.896;2023-11-21T13:47:50;9.30;99.90
59855;DHT22;45732;52.850;6.896;2023-11-21T13:50:28;9.40;99.90
59855;DHT22;45732;52.850;6.896;2023-11-21T13:53:01;9.40;99.90
59855;DHT22;45732;52.850;6.896;2023-11-21T13:55:34;9.40;99.90
59855;DHT22;45732;52.850;6.896;2023-11-21T13:58:01;9.40;99.90
59855;DHT22;45732;52.850;6.896;2023-11-21T14:00:29;9.40;99.90
59855;DHT22;45732;52.850;6.896;2023-11-21T14:03:14;9.40;99.90
59855;DHT22;45732;52.850;6.896;2023-11-21T14:05:50;9.40;99.90
59855;DHT22;45732;52.850;6.896;2023-11-21T14:08:21;9.40;99.90
59855;DHT22;45732;52.850;6.896;2023-11-21T14:10:49;9.40;99.90
59855;DHT22;45732;52.850;6.896;2023-11-21T14:13:23;9.40;99.90
59855;DHT22;45732;52.850;6.896;2023-11-21T14:15:50;9.40;99.90
59855;DHT22;45732;52.850;6.896;2023-11-21T14:18:19;9.40;99.90
59855;DHT22;45732;52.850;6.896;2023-11-21T14:20:53;9.30;99.90
59855;DHT22;45732;52.850;6.896;2023-11-21T14:23:18;9.30;99.90
59855;DHT22;45732;52.850;6.896;2023-11-21T14:25:44;9.30;99.90
59855;DHT22;45732;52.850;6.896;2023-11-21T14:28:10;9.30;99.90
59855;DHT22;45732;52.850;6.896;2023-11-21T14:30:38;9.30;99.90
59855;DHT22;45732;52.850;6.896;2023-11-21T14:33:05;9.30;99.90
59855;DHT22;45732;52.850;6.896;2023-11-21T14:35:32;9.30;99.90
59855;DHT22;45732;52.850;6.896;2023-11-21T14:37:58;9.20;99.90
59855;DHT22;45732;52.850;6.896;2023-11-21T14:40:26;9.20;99.90
59855;DHT22;45732;52.850;6.896;2023-11-21T14:42:56;9.20;99.90
59855;DHT22;45732;52.850;6.896;2023-11-21T14:45:22;9.20;99.90
59855;DHT22;45732;52.850;6.896;2023-11-21T14:47:51;9.20;99.90
59855;DHT22;45732;52.850;6.896;2023-11-21T14:50:42;9.20;99.90
59855;DHT22;45732;52.850;6.896;2023-11-21T14:53:09;9.10;99.90
59855;DHT22;45732;52.850;6.896;2023-11-21T14:55:35;9.10;99.90
59855;DHT22;45732;52.850;6.896;2023-11-21T14:58:06;9.10;99.90
59855;DHT22;45732;52.850;6.896;2023-11-21T15:00:37;9.00;99.90
59855;DHT22;45732;52.850;6.896;2023-11-21T15:03:10;9.10;99.90
59855;DHT22;45732;52.850;6.896;2023-11-21T15:05:40;9.00;99.90
59855;DHT22;45732;52.850;6.896;2023-11-21T15:08:06;9.00;99.90
59855;DHT22;45732;52.850;6.896;2023-11-21T15:11:01;9.00;99.90
59855;DHT22;45732;52.850;6.896;2023-11-21T15:13:32;9.00;99.90
59855;DHT22;45732;52.850;6.896;2023-11-21T15:15:58;9.00;99.90
59855;DHT22;45732;52.850;6.896;2023-11-21T15:18:33;8.90;99.90
59855;DHT22;45732;52.850;6.896;2023-11-21T15:21:00;9.00;99.90
59855;DHT22;45732;52.850;6.896;2023-11-21T15:23:25;8.90;99.90
59855;DHT22;45732;52.850;6.896;2023-11-21T15:25:53;8.90;99.90
59855;DHT22;45732;52.850;6.896;2023-11-21T15:28:19;8.90;99.90
59855;DHT22;45732;52.850;6.896;2023-11-21T15:30:45;8.90;99.90
59855;DHT22;45732;52.850;6.896;2023-11-21T15:33:13;8.90;99.90
59855;DHT22;45732;52.850;6.896;2023-11-21T15:35:39;8.90;99.90
59855;DHT22;45732;52.850;6.896;2023-11-21T15:38:06;8.80;99.90
59855;DHT22;45732;52.850;6.896;2023-11-21T15:40:33;8.80;99.90
59855;DHT22;45732;52.850;6.896;2023-11-21T15:42:59;8.80;99.90
59855;DHT22;45732;52.850;6.896;2023-11-21T15:45:26;8.70;99.90
59855;DHT22;45732;52.850;6.896;2023-11-21T15:47:52;8.70;99.90
59855;DHT22;45732;52.850;6.896;2023-11-21T15:50:19;8.60;99.90
59855;DHT22;45732;52.850;6.896;2023-11-21T15:52:44;8.60;99.90
59855;DHT22;45732;52.850;6.896;2023-11-21T15:55:11;8.50;99.90
59855;DHT22;45732;52.850;6.896;2023-11-21T15:57:37;8.50;99.90
59855;DHT22;45732;52.850;6.896;2023-11-21T16:00:03;8.40;99.90